createdAt,value
2023-03-03T00:01:08.805Z,101773.84
2023-03-03T00:03:35.256Z,101767.63
2023-03-03T00:06:03.118Z,101766.59
2023-03-03T00:08:29.524Z,101763.66
2023-03-03T00:10:55.829Z,101763.13
2023-03-03T00:13:23.550Z,101751.94
2023-03-03T00:15:51.616Z,101757.75
2023-03-03T00:18:28.671Z,101760.16
2023-03-03T00:20:56.662Z,101764.66
2023-03-03T00:23:36.538Z,101770.56
2023-03-03T00:26:13.597Z,101767.00
2023-03-03T00:28:47.432Z,101765.19
2023-03-03T00:31:18.573Z,101763.81
2023-03-03T00:33:55.133Z,101763.63
2023-03-03T00:36:37.952Z,101762.56
2023-03-03T00:39:26.044Z,101757.28
2023-03-03T00:41:52.450Z,101754.66
2023-03-03T00:44:37.179Z,101752.88
2023-03-03T00:47:22.302Z,101751.53
2023-03-03T00:49:48.593Z,101730.50
2023-03-03T00:52:17.032Z,101732.34
2023-03-03T00:54:43.497Z,101730.19
2023-03-03T00:57:12.560Z,101739.03
2023-03-03T00:59:39.147Z,101743.00
2023-03-03T01:02:05.840Z,101747.63
2023-03-03T01:04:32.271Z,101746.56
2023-03-03T01:06:58.742Z,101735.94
2023-03-03T01:09:25.121Z,101728.94
2023-03-03T01:11:51.713Z,101725.47
2023-03-03T01:14:18.200Z,101724.09
2023-03-03T01:16:44.551Z,101719.19
2023-03-03T01:19:10.888Z,101711.03
2023-03-03T01:21:37.288Z,101703.94
2023-03-03T01:24:03.628Z,101710.22
2023-03-03T01:26:31.385Z,101714.25
2023-03-03T01:28:57.687Z,101707.09
2023-03-03T01:31:24.066Z,101703.78
2023-03-03T01:33:50.599Z,101697.00
2023-03-03T01:36:22.710Z,101688.44
2023-03-03T01:38:49.035Z,101690.28
2023-03-03T01:41:15.343Z,101693.34
2023-03-03T01:43:45.854Z,101697.44
2023-03-03T01:46:24.016Z,101697.28
2023-03-03T01:48:53.482Z,101688.63
2023-03-03T01:51:23.738Z,101691.84
2023-03-03T01:53:51.580Z,101691.38
2023-03-03T01:56:18.281Z,101694.97
2023-03-03T01:58:46.901Z,101684.50
2023-03-03T02:01:19.286Z,101693.34
2023-03-03T02:03:45.600Z,101684.28
2023-03-03T02:06:16.353Z,101696.66
2023-03-03T02:08:53.795Z,101698.53
2023-03-03T02:11:21.848Z,101699.72
2023-03-03T02:13:48.213Z,101689.06
2023-03-03T02:16:14.998Z,101685.72
2023-03-03T02:18:41.370Z,101696.03
2023-03-03T02:21:12.591Z,101691.66
2023-03-03T02:23:47.931Z,101689.91
2023-03-03T02:26:25.903Z,101683.94
2023-03-03T02:28:52.502Z,101690.72
2023-03-03T02:31:20.132Z,101690.19
2023-03-03T02:33:48.185Z,101699.75
2023-03-03T02:36:15.705Z,101709.16
2023-03-03T02:38:54.176Z,101713.53
2023-03-03T02:41:23.516Z,101711.50
2023-03-03T02:43:52.832Z,101708.59
2023-03-03T02:46:19.254Z,101706.16
2023-03-03T02:48:45.597Z,101697.97
2023-03-03T02:51:11.874Z,101693.91
2023-03-03T02:53:38.313Z,101694.50
2023-03-03T02:56:04.887Z,101697.25
2023-03-03T02:58:31.351Z,101711.56
2023-03-03T03:00:57.806Z,101709.22
2023-03-03T03:03:24.267Z,101713.81
2023-03-03T03:05:50.861Z,101709.22
2023-03-03T03:08:17.163Z,101697.78
2023-03-03T03:10:43.722Z,101709.19
2023-03-03T03:13:10.056Z,101720.28
2023-03-03T03:15:36.485Z,101716.25
2023-03-03T03:18:02.827Z,101722.19
2023-03-03T03:20:29.296Z,101708.03
2023-03-03T03:22:55.604Z,101702.34
2023-03-03T03:25:21.933Z,101688.81
2023-03-03T03:27:48.270Z,101696.31
2023-03-03T03:30:15.147Z,101691.81
2023-03-03T03:32:41.466Z,101693.47
2023-03-03T03:35:07.929Z,101696.56
2023-03-03T03:37:34.222Z,101689.56
2023-03-03T03:40:00.583Z,101690.66
2023-03-03T03:42:27.005Z,101686.47
2023-03-03T03:44:53.325Z,101686.72
2023-03-03T03:47:19.670Z,101684.38
2023-03-03T03:49:45.929Z,101690.16
2023-03-03T03:52:12.223Z,101692.13
2023-03-03T03:54:38.533Z,101697.13
2023-03-03T03:57:04.882Z,101700.41
2023-03-03T03:59:31.290Z,101708.78
2023-03-03T04:01:57.657Z,101708.56
2023-03-03T04:04:23.959Z,101701.75
2023-03-03T04:06:50.343Z,101689.41
2023-03-03T04:09:16.685Z,101684.66
2023-03-03T04:11:42.970Z,101683.34
2023-03-03T04:14:09.234Z,101685.66
2023-03-03T04:16:35.734Z,101686.38
2023-03-03T04:19:02.029Z,101683.75
2023-03-03T04:21:28.359Z,101678.22
2023-03-03T04:23:54.746Z,101679.38
2023-03-03T04:26:21.123Z,101682.31
2023-03-03T04:28:47.393Z,101671.94
2023-03-03T04:31:13.713Z,101671.78
2023-03-03T04:33:40.134Z,101668.69
2023-03-03T04:36:06.502Z,101660.94
2023-03-03T04:38:32.946Z,101663.44
2023-03-03T04:40:59.240Z,101663.44
2023-03-03T04:43:25.651Z,101665.59
2023-03-03T04:45:52.159Z,101668.63
2023-03-03T04:48:18.473Z,101673.47
2023-03-03T04:50:44.780Z,101668.84
2023-03-03T04:53:11.088Z,101660.69
2023-03-03T04:55:37.747Z,101656.59
2023-03-03T04:58:04.920Z,101661.72
2023-03-03T05:00:31.549Z,101656.34
2023-03-03T05:02:58.198Z,101659.47
2023-03-03T05:05:24.464Z,101670.72
2023-03-03T05:07:50.773Z,101671.81
2023-03-03T05:10:17.128Z,101677.22
2023-03-03T05:12:44.097Z,101678.94
2023-03-03T05:15:10.718Z,101676.22
2023-03-03T05:17:37.134Z,101674.78
2023-03-03T05:20:05.495Z,101671.56
2023-03-03T05:22:31.828Z,101675.91
2023-03-03T05:24:58.114Z,101670.69
2023-03-03T05:27:24.430Z,101670.78
2023-03-03T05:29:51.243Z,101664.81
2023-03-03T05:32:17.566Z,101668.69
2023-03-03T05:34:43.896Z,101666.69
2023-03-03T05:37:10.232Z,101669.47
2023-03-03T05:39:36.593Z,101671.13
2023-03-03T05:42:03.110Z,101665.81
2023-03-03T05:44:29.722Z,101671.72
2023-03-03T05:46:57.649Z,101675.75
2023-03-03T05:49:24.011Z,101685.16
2023-03-03T05:51:50.346Z,101675.75
2023-03-03T05:54:16.669Z,101674.81
2023-03-03T05:56:42.991Z,101670.78
2023-03-03T05:59:09.305Z,101681.59
2023-03-03T06:01:35.658Z,101680.25
2023-03-03T06:04:02.014Z,101673.22
2023-03-03T06:06:28.347Z,101687.88
2023-03-03T06:08:57.123Z,101685.44
2023-03-03T06:11:23.659Z,101676.69
2023-03-03T06:13:49.998Z,101679.09
2023-03-03T06:16:16.336Z,101679.13
2023-03-03T06:18:42.669Z,101686.72
2023-03-03T06:21:08.980Z,101680.69
2023-03-03T06:23:35.309Z,101671.41
2023-03-03T06:26:01.654Z,101670.88
2023-03-03T06:28:28.257Z,101684.41
2023-03-03T06:30:55.145Z,101690.16
2023-03-03T06:33:21.885Z,101686.72
2023-03-03T06:35:51.313Z,101678.50
2023-03-03T06:38:18.025Z,101682.47
2023-03-03T06:40:44.767Z,101687.13
2023-03-03T06:43:11.119Z,101694.81
2023-03-03T06:45:37.441Z,101685.59
2023-03-03T06:48:04.301Z,101701.19
2023-03-03T06:50:30.737Z,101705.59
2023-03-03T06:53:05.068Z,101701.22
2023-03-03T06:55:31.359Z,101706.09
2023-03-03T06:57:57.647Z,101707.13
2023-03-03T07:00:25.018Z,101719.75
2023-03-03T07:02:57.681Z,101721.28
2023-03-03T07:05:24.164Z,101723.50
2023-03-03T07:07:50.504Z,101722.88
2023-03-03T07:10:27.669Z,101723.78
2023-03-03T07:12:54.549Z,101730.53
2023-03-03T07:15:24.863Z,101727.16
2023-03-03T07:17:55.023Z,101732.06
2023-03-03T07:20:22.939Z,101730.59
2023-03-03T07:22:49.340Z,101730.63
2023-03-03T07:25:42.441Z,101738.81
2023-03-03T07:28:27.965Z,101742.75
2023-03-03T07:30:55.375Z,101735.38
2023-03-03T07:33:29.015Z,101738.09
2023-03-03T07:35:56.918Z,101735.81
2023-03-03T07:38:25.514Z,101736.75
2023-03-03T07:40:56.365Z,101745.06
2023-03-03T07:43:22.643Z,101751.13
2023-03-03T07:45:49.017Z,101759.78
2023-03-03T07:48:31.485Z,101758.22
2023-03-03T07:51:03.299Z,101754.50
2023-03-03T07:53:34.695Z,101763.34
2023-03-03T07:56:01.524Z,101752.03
2023-03-03T07:58:35.693Z,101754.47
2023-03-03T08:01:20.753Z,101744.88
2023-03-03T08:03:49.414Z,101748.34
2023-03-03T08:06:34.215Z,101752.91
2023-03-03T08:09:09.596Z,101755.63
2023-03-03T08:11:37.785Z,101749.16
2023-03-03T08:14:09.549Z,101750.72
2023-03-03T08:16:37.828Z,101753.72
2023-03-03T08:19:05.329Z,101756.69
2023-03-03T08:21:34.425Z,101747.81
2023-03-03T08:24:00.783Z,101750.66
2023-03-03T08:26:27.100Z,101750.97
2023-03-03T08:28:54.133Z,101755.84
2023-03-03T08:31:38.334Z,101759.66
2023-03-03T08:34:06.858Z,101753.50
2023-03-03T08:36:34.802Z,101748.34
2023-03-03T08:39:01.542Z,101751.59
2023-03-03T08:41:27.889Z,101752.63
2023-03-03T08:43:54.206Z,101749.97
2023-03-03T08:46:20.536Z,101749.97
2023-03-03T08:48:46.948Z,101748.91
2023-03-03T08:51:13.261Z,101754.03
2023-03-03T08:53:39.630Z,101760.34
2023-03-03T08:56:06.858Z,101764.94
2023-03-03T08:58:35.816Z,101762.50
2023-03-03T09:01:02.841Z,101755.91
2023-03-03T09:03:29.876Z,101752.94
2023-03-03T09:05:56.226Z,101747.78
2023-03-03T09:08:23.091Z,101746.09
2023-03-03T09:10:49.395Z,101752.31
2023-03-03T09:13:17.197Z,101747.25
2023-03-03T09:15:43.662Z,101745.91
2023-03-03T09:18:26.296Z,101741.03
2023-03-03T09:20:53.927Z,101742.34
2023-03-03T09:23:25.971Z,101747.09
2023-03-03T09:25:52.592Z,101750.56
2023-03-03T09:28:23.908Z,101746.22
2023-03-03T09:30:50.948Z,101750.34
2023-03-03T09:33:26.527Z,101753.31
2023-03-03T09:35:58.264Z,101751.94
2023-03-03T09:38:32.226Z,101752.22
2023-03-03T09:41:13.726Z,101751.91
2023-03-03T09:43:49.826Z,101746.28
2023-03-03T09:46:28.192Z,101756.59
2023-03-03T09:49:13.402Z,101747.03
2023-03-03T09:51:42.829Z,101749.00
2023-03-03T09:54:15.374Z,101755.22
2023-03-03T09:56:51.134Z,101751.69
2023-03-03T09:59:26.464Z,101749.00
2023-03-03T10:01:55.744Z,101757.13
2023-03-03T10:04:31.217Z,101752.50
2023-03-03T10:07:06.598Z,101747.63
2023-03-03T10:09:51.865Z,101752.53
2023-03-03T10:12:29.205Z,101756.31
2023-03-03T10:15:13.871Z,101749.81
2023-03-03T10:17:40.153Z,101749.56
2023-03-03T10:20:15.472Z,101755.75
2023-03-03T10:22:54.081Z,101749.56
2023-03-03T10:25:29.737Z,101754.66
2023-03-03T10:28:08.119Z,101757.91
2023-03-03T10:31:02.498Z,101757.09
2023-03-03T10:33:40.294Z,101747.94
2023-03-03T10:36:30.650Z,101762.81
2023-03-03T10:39:00.236Z,101766.06
2023-03-03T10:41:29.549Z,101765.25
2023-03-03T10:43:58.895Z,101776.91
2023-03-03T10:46:31.296Z,101770.91
2023-03-03T10:49:19.982Z,101768.75
2023-03-03T10:51:55.481Z,101770.41
2023-03-03T10:54:21.770Z,101769.31
2023-03-03T10:56:57.623Z,101768.50
2023-03-03T10:59:31.411Z,101763.09
2023-03-03T11:02:19.211Z,101765.53
2023-03-03T11:05:04.668Z,101770.38
2023-03-03T11:07:31.002Z,101776.09
2023-03-03T11:10:08.773Z,101765.81
2023-03-03T11:12:35.137Z,101764.16
2023-03-03T11:15:23.338Z,101758.75
2023-03-03T11:18:08.427Z,101762.28
2023-03-03T11:20:37.812Z,101761.13
2023-03-03T11:23:28.383Z,101767.94
2023-03-03T11:26:07.713Z,101757.16
2023-03-03T11:28:46.502Z,101757.38
2023-03-03T11:31:31.648Z,101751.94
2023-03-03T11:33:58.191Z,101755.19
2023-03-03T11:36:35.170Z,101750.06
2023-03-03T11:39:09.829Z,101756.03
2023-03-03T11:41:39.695Z,101762.13
2023-03-03T11:44:18.417Z,101752.41
2023-03-03T11:46:58.843Z,101754.63
2023-03-03T11:49:28.363Z,101752.16
2023-03-03T11:52:03.828Z,101741.91
2023-03-03T11:54:30.140Z,101742.72
2023-03-03T11:57:01.513Z,101730.19
2023-03-03T11:59:31.844Z,101728.34
2023-03-03T12:02:03.210Z,101728.25
2023-03-03T12:04:32.623Z,101734.25
2023-03-03T12:07:19.718Z,101737.16
2023-03-03T12:09:46.304Z,101724.09
2023-03-03T12:12:13.328Z,101722.66
2023-03-03T12:14:45.494Z,101713.47
2023-03-03T12:17:30.109Z,101710.75
2023-03-03T12:19:56.546Z,101704.09
2023-03-03T12:22:25.660Z,101691.78
2023-03-03T12:25:04.742Z,101706.53
2023-03-03T12:27:34.365Z,101705.63
2023-03-03T12:30:00.701Z,101707.84
2023-03-03T12:32:32.910Z,101704.47
2023-03-03T12:35:06.822Z,101708.88
2023-03-03T12:37:33.407Z,101709.72
2023-03-03T12:40:02.715Z,101709.28
2023-03-03T12:42:52.473Z,101702.28
2023-03-03T12:45:27.874Z,101695.25
2023-03-03T12:48:06.855Z,101694.31
2023-03-03T12:50:41.977Z,101684.81
2023-03-03T12:53:17.411Z,101688.59
2023-03-03T12:56:00.450Z,101683.31
2023-03-03T12:58:42.175Z,101681.56
2023-03-03T13:01:34.340Z,101680.97
2023-03-03T13:04:12.893Z,101674.75
2023-03-03T13:06:57.777Z,101683.69
2023-03-03T13:09:27.424Z,101676.63
2023-03-03T13:12:08.980Z,101676.97
2023-03-03T13:14:35.328Z,101681.00
2023-03-03T13:17:21.890Z,101676.72
2023-03-03T13:20:00.268Z,101675.16
2023-03-03T13:22:41.842Z,101661.47
2023-03-03T13:25:23.280Z,101672.72
2023-03-03T13:27:52.849Z,101663.72
2023-03-03T13:30:19.160Z,101658.19
2023-03-03T13:33:01.906Z,101653.38
2023-03-03T13:35:45.868Z,101653.22
2023-03-03T13:38:20.890Z,101648.88
2023-03-03T13:40:54.721Z,101642.28
2023-03-03T13:43:34.549Z,101644.63
2023-03-03T13:46:01.910Z,101641.63
2023-03-03T13:48:43.069Z,101648.16
2023-03-03T13:51:09.499Z,101644.38
2023-03-03T13:53:41.837Z,101640.13
2023-03-03T13:56:22.856Z,101648.66
2023-03-03T13:58:49.201Z,101640.44
2023-03-03T14:01:18.742Z,101643.63
2023-03-03T14:03:48.131Z,101641.78
2023-03-03T14:06:17.158Z,101632.34
2023-03-03T14:09:02.221Z,101631.31
2023-03-03T14:11:31.468Z,101624.91
2023-03-03T14:14:05.280Z,101625.97
2023-03-03T14:16:47.053Z,101614.59
2023-03-03T14:19:25.557Z,101613.72
2023-03-03T14:22:10.924Z,101611.88
2023-03-03T14:24:55.756Z,101611.03
2023-03-03T14:27:27.599Z,101610.72
2023-03-03T14:29:54.083Z,101604.97
2023-03-03T14:32:23.105Z,101608.94
2023-03-03T14:34:57.815Z,101606.28
2023-03-03T14:37:42.355Z,101605.75
2023-03-03T14:40:08.752Z,101597.66
2023-03-03T14:42:53.595Z,101595.47
2023-03-03T14:45:36.322Z,101592.81
2023-03-03T14:48:12.254Z,101584.72
2023-03-03T14:50:40.126Z,101578.78
2023-03-03T14:53:18.822Z,101580.06
2023-03-03T14:55:46.490Z,101572.50
2023-03-03T14:58:25.231Z,101579.19
2023-03-03T15:01:06.437Z,101575.44
2023-03-03T15:03:37.957Z,101567.41
2023-03-03T15:06:12.758Z,101565.25
2023-03-03T15:08:40.316Z,101559.81
2023-03-03T15:11:14.203Z,101557.94
2023-03-03T15:13:41.132Z,101562.31
2023-03-03T15:16:12.438Z,101550.31
2023-03-03T15:19:00.618Z,101551.00
2023-03-03T15:21:32.278Z,101550.88
2023-03-03T15:24:01.407Z,101556.66
2023-03-03T15:26:27.911Z,101555.44
2023-03-03T15:28:59.319Z,101541.88
2023-03-03T15:31:44.403Z,101553.59
2023-03-03T15:34:23.982Z,101559.16
2023-03-03T15:37:05.501Z,101546.97
2023-03-03T15:39:37.876Z,101541.19
2023-03-03T15:42:13.517Z,101543.63
2023-03-03T15:44:56.414Z,101537.84
2023-03-03T15:47:32.155Z,101540.84
2023-03-03T15:50:06.441Z,101539.00
2023-03-03T15:52:36.243Z,101546.91
2023-03-03T15:55:27.672Z,101548.97
2023-03-03T15:57:54.018Z,101532.31
2023-03-03T16:00:36.680Z,101533.78
2023-03-03T16:03:15.279Z,101538.13
2023-03-03T16:05:49.666Z,101540.88
2023-03-03T16:08:22.527Z,101545.16
2023-03-03T16:10:54.952Z,101536.75
2023-03-03T16:13:27.438Z,101536.50
2023-03-03T16:15:59.943Z,101534.03
2023-03-03T16:18:38.966Z,101527.25
2023-03-03T16:21:24.243Z,101527.47
2023-03-03T16:23:52.081Z,101524.19
2023-03-03T16:26:18.446Z,101521.75
2023-03-03T16:28:53.497Z,101524.72
2023-03-03T16:31:22.859Z,101531.38
2023-03-03T16:34:07.278Z,101530.91
2023-03-03T16:36:42.413Z,101526.53
2023-03-03T16:39:12.531Z,101522.34
2023-03-03T16:41:55.963Z,101520.00
2023-03-03T16:44:22.308Z,101516.97
2023-03-03T16:46:49.824Z,101520.00
2023-03-03T16:49:25.560Z,101510.59
2023-03-03T16:51:54.735Z,101506.59
2023-03-03T16:54:32.060Z,101516.31
2023-03-03T16:57:16.583Z,101506.91
2023-03-03T17:00:06.531Z,101508.97
2023-03-03T17:02:45.120Z,101512.78
2023-03-03T17:05:28.149Z,101512.19
2023-03-03T17:08:13.360Z,101507.00
2023-03-03T17:11:03.045Z,101500.16
2023-03-03T17:13:48.064Z,101500.03
2023-03-03T17:16:21.261Z,101501.47
2023-03-03T17:19:06.082Z,101501.47
2023-03-03T17:21:35.319Z,101500.75
2023-03-03T17:24:10.613Z,101500.41
2023-03-03T17:26:57.423Z,101499.88
2023-03-03T17:29:26.551Z,101504.66
2023-03-03T17:31:56.055Z,101504.06
2023-03-03T17:34:34.881Z,101522.13
2023-03-03T17:37:07.109Z,101521.09
2023-03-03T17:39:45.110Z,101525.00
2023-03-03T17:42:19.257Z,101520.34
2023-03-03T17:45:04.682Z,101519.25
2023-03-03T17:47:31.003Z,101511.13
2023-03-03T17:49:57.286Z,101521.28
2023-03-03T17:52:38.701Z,101520.44
2023-03-03T17:55:17.336Z,101518.69
2023-03-03T17:57:51.196Z,101521.47
2023-03-03T18:00:20.729Z,101518.31
2023-03-03T18:03:05.908Z,101514.44
2023-03-03T18:05:32.392Z,101510.47
2023-03-03T18:08:18.019Z,101512.16
2023-03-03T18:11:03.012Z,101510.84
2023-03-03T18:13:34.473Z,101515.75
2023-03-03T18:16:12.648Z,101507.72
2023-03-03T18:18:45.634Z,101510.97
2023-03-03T18:21:16.698Z,101510.00
2023-03-03T18:23:45.048Z,101514.44
2023-03-03T18:26:30.236Z,101503.59
2023-03-03T18:29:10.925Z,101505.88
2023-03-03T18:32:00.289Z,101499.09
2023-03-03T18:34:40.249Z,101497.44
2023-03-03T18:37:25.601Z,101493.34
2023-03-03T18:40:04.408Z,101496.34
2023-03-03T18:42:38.335Z,101494.47
2023-03-03T18:45:20.347Z,101483.81
2023-03-03T18:48:05.169Z,101492.84
2023-03-03T18:50:31.548Z,101499.97
2023-03-03T18:53:21.252Z,101488.50
2023-03-03T18:55:48.905Z,101484.50
2023-03-03T18:58:15.247Z,101491.81
2023-03-03T19:01:02.822Z,101493.41
2023-03-03T19:03:29.245Z,101490.56
2023-03-03T19:05:57.846Z,101495.94
2023-03-03T19:08:26.465Z,101493.69
2023-03-03T19:11:03.112Z,101481.75
2023-03-03T19:13:32.604Z,101486.25
2023-03-03T19:16:06.375Z,101469.50
2023-03-03T19:18:55.764Z,101469.25
2023-03-03T19:21:25.261Z,101473.59
2023-03-03T19:24:00.142Z,101464.31
2023-03-03T19:26:28.872Z,101463.81
2023-03-03T19:29:00.435Z,101457.28
2023-03-03T19:31:26.743Z,101466.16
2023-03-03T19:34:13.414Z,101472.81
2023-03-03T19:36:42.876Z,101459.13
2023-03-03T19:39:28.019Z,101463.13
2023-03-03T19:42:13.195Z,101466.81
2023-03-03T19:44:39.573Z,101465.97
2023-03-03T19:47:24.587Z,101460.06
2023-03-03T19:50:00.710Z,101455.31
2023-03-03T19:52:33.184Z,101450.03
2023-03-03T19:55:11.875Z,101459.94
2023-03-03T19:58:00.159Z,101442.41
2023-03-03T20:00:35.602Z,101438.31
2023-03-03T20:03:18.382Z,101439.69
2023-03-03T20:06:08.300Z,101436.53
2023-03-03T20:08:41.374Z,101428.06
2023-03-03T20:11:16.884Z,101440.16
2023-03-03T20:13:43.274Z,101436.06
2023-03-03T20:16:28.713Z,101437.72
2023-03-03T20:19:07.275Z,101430.19
2023-03-03T20:21:36.731Z,101433.06
2023-03-03T20:24:29.510Z,101426.84
2023-03-03T20:27:05.102Z,101425.78
2023-03-03T20:29:49.896Z,101425.88
2023-03-03T20:32:19.300Z,101431.56
2023-03-03T20:34:59.048Z,101429.31
2023-03-03T20:37:52.267Z,101431.41
2023-03-03T20:40:27.202Z,101430.53
2023-03-03T20:42:56.795Z,101423.31
2023-03-03T20:45:26.399Z,101417.56
2023-03-03T20:48:10.396Z,101418.13
2023-03-03T20:50:53.639Z,101403.66
2023-03-03T20:53:38.143Z,101401.22
2023-03-03T20:56:10.629Z,101398.94
2023-03-03T20:59:00.246Z,101403.75
2023-03-03T21:01:36.042Z,101399.75
2023-03-03T21:04:23.070Z,101404.00
2023-03-03T21:06:49.853Z,101394.03
2023-03-03T21:09:27.766Z,101399.16
2023-03-03T21:11:54.695Z,101396.63
2023-03-03T21:14:26.590Z,101397.19
2023-03-03T21:16:56.265Z,101400.47
2023-03-03T21:19:32.471Z,101394.16
2023-03-03T21:22:01.992Z,101388.56
2023-03-03T21:24:47.475Z,101373.84
2023-03-03T21:27:33.628Z,101375.91
2023-03-03T21:30:11.160Z,101367.44
2023-03-03T21:32:39.082Z,101367.53
2023-03-03T21:35:08.177Z,101361.41
2023-03-03T21:37:48.480Z,101361.44
2023-03-03T21:40:16.356Z,101363.00
2023-03-03T21:42:44.171Z,101357.38
2023-03-03T21:45:12.063Z,101346.53
2023-03-03T21:47:38.377Z,101340.75
2023-03-03T21:50:04.881Z,101339.94
2023-03-03T21:52:32.982Z,101333.28
2023-03-03T21:54:59.338Z,101332.19
2023-03-03T21:57:25.788Z,101322.03
2023-03-03T21:59:53.151Z,101314.91
2023-03-03T22:02:19.476Z,101317.41
2023-03-03T22:04:45.850Z,101329.63
2023-03-03T22:07:12.273Z,101328.56
2023-03-03T22:09:38.939Z,101329.97
2023-03-03T22:12:06.349Z,101324.22
2023-03-03T22:14:32.812Z,101317.28
2023-03-03T22:16:59.122Z,101307.16
2023-03-03T22:19:25.539Z,101312.59
2023-03-03T22:21:51.886Z,101304.38
2023-03-03T22:24:18.762Z,101297.97
2023-03-03T22:26:45.289Z,101300.28
2023-03-03T22:29:11.621Z,101295.44
2023-03-03T22:31:37.964Z,101289.88
2023-03-03T22:34:04.602Z,101275.84
2023-03-03T22:36:30.966Z,101264.59
2023-03-03T22:38:57.264Z,101260.63
2023-03-03T22:41:23.656Z,101258.69
2023-03-03T22:43:50.096Z,101258.06
2023-03-03T22:46:16.393Z,101261.38
2023-03-03T22:48:42.724Z,101261.38
2023-03-03T22:51:09.143Z,101262.91
2023-03-03T22:53:35.417Z,101251.31
2023-03-03T22:56:01.817Z,101261.53
2023-03-03T22:58:29.426Z,101265.91
2023-03-03T23:00:55.830Z,101270.56
2023-03-03T23:03:22.185Z,101262.13
2023-03-03T23:05:51.582Z,101255.13
2023-03-03T23:08:19.265Z,101245.69
2023-03-03T23:10:45.969Z,101231.78
2023-03-03T23:13:12.782Z,101245.09
2023-03-03T23:15:39.073Z,101251.22
2023-03-03T23:18:05.397Z,101241.13
2023-03-03T23:20:31.867Z,101240.69
2023-03-03T23:22:58.757Z,101237.41
2023-03-03T23:25:25.687Z,101228.84
2023-03-03T23:27:52.558Z,101239.41
2023-03-03T23:30:19.554Z,101242.03
2023-03-03T23:32:46.789Z,101243.66
2023-03-03T23:35:13.180Z,101248.66
2023-03-03T23:37:39.518Z,101229.53
2023-03-03T23:40:06.575Z,101233.19
2023-03-03T23:42:32.989Z,101234.25
2023-03-03T23:44:59.472Z,101225.59
2023-03-03T23:47:26.413Z,101223.44
2023-03-03T23:49:52.764Z,101218.00
2023-03-03T23:52:19.047Z,101222.03
2023-03-03T23:54:45.450Z,101222.06
2023-03-03T23:57:11.772Z,101205.97
2023-03-03T23:59:38.100Z,101196.34
